Time;durP1;ratioP1;P1;durP2;ratioP2;P2;SDS_P1;SDS_P2;PMS_P1;PMS_P2;Temp;Humidity;BMP_temperature;BMP_pressure;BME280_temperature;BME280_humidity;BME280_pressure;Samples;Min_cycle;Max_cycle;Signal;HPM_P1;HPM_P2
2023/04/17 00:02:09;;;;;;;;;;;;;;;;;;5067459;28;19928;-66
2023/04/17 00:04:36;;;;;;;;;;;;;;;;;;5067599;28;20438;-65
2023/04/17 00:07:02;;;;;;;;;;;;;;;;;;5058615;28;19921;-65
2023/04/17 00:09:28;;;;;;;;;;;;;;;;;;5071568;28;19977;-65
2023/04/17 00:11:54;;;;;;;;;;;;;;;;;;5053037;28;19924;-66
2023/04/17 00:14:20;;;;;;;;;;;;;;;;;;5051719;28;20054;-65
2023/04/17 00:16:46;;;;;;;;;;;;;;;;;;5068624;28;20082;-66
2023/04/17 00:19:12;;;;;;;;;;;;;;;;;;5052218;28;20015;-65
2023/04/17 00:21:38;;;;;;;;;;;;;;;;;;5071192;28;19925;-65
2023/04/17 00:24:04;;;;;;;;;;;;;;;;;;5070140;28;19934;-65
2023/04/17 00:26:31;;;;;;;;;;;;;;;;;;5071438;28;19921;-65
2023/04/17 00:28:57;;;;;;;;;;;;;;;;;;5052222;28;19925;-64
2023/04/17 00:31:23;;;;;;;;;;;;;;;;;;5070848;28;19924;-66
2023/04/17 00:33:49;;;;;;;;;;;;;;;;;;5067826;28;19921;-65
2023/04/17 00:36:15;;;;;;;;;;;;;;;;;;5065574;28;19964;-66
2023/04/17 00:38:41;;;;;;;;;;;;;;;;;;5069894;28;19962;-66
2023/04/17 00:41:07;;;;;;;;;;;;;;;;;;5070384;28;19920;-66
2023/04/17 00:43:32;;;;;;;;;;;;;;;;;;5068004;28;20007;-65
2023/04/17 00:45:58;;;;;;;;;;;;;;;;;;5069125;28;19975;-66
2023/04/17 00:48:24;;;;;;;;;;;;;;;;;;5069329;28;19932;-66
2023/04/17 00:50:50;;;;;;;;;;;;;;;;;;5066628;28;19921;-66
2023/04/17 00:53:16;;;;;;;;;;;;;;;;;;5048863;28;20382;-65
2023/04/17 00:55:42;;;;;;;;;;;;;;;;;;5066242;28;19928;-66
2023/04/17 00:58:08;;;;;;;;;;;;;;;;;;5070031;28;19927;-66
2023/04/17 01:00:34;;;;;;;;;;;;;;;;;;5049436;28;19924;-66
2023/04/17 01:03:00;;;;;;;;;;;;;;;;;;5053034;28;20067;-67
2023/04/17 01:05:26;;;;;;;;;;;;;;;;;;5066578;28;19975;-66
2023/04/17 01:07:52;;;;;;;;;;;;;;;;;;5052886;28;19959;-66
2023/04/17 01:10:18;;;;;;;;;;;;;;;;;;5035004;28;20001;-66
2023/04/17 01:12:47;;;;;;;;;;;;;;;;;;5070191;28;20058;-66
2023/04/17 01:15:13;;;;;;;;;;;;;;;;;;5068153;28;20048;-66
2023/04/17 01:17:39;;;;;;;;;;;;;;;;;;5071102;28;19920;-66
2023/04/17 01:20:06;;;;;;;;;;;;;;;;;;5067085;22;19933;-62
2023/04/17 01:22:32;;;;;;;;;;;;;;;;;;5050241;28;19973;-63
2023/04/17 01:24:58;;;;;;;;;;;;;;;;;;5054770;28;20358;-63
2023/04/17 01:27:24;;;;;;;;;;;;;;;;;;5046983;28;20409;-63
2023/04/17 01:29:50;;;;;;;;;;;;;;;;;;5031531;28;19925;-62
2023/04/17 01:32:16;;;;;;;;;;;;;;;;;;5050452;28;19925;-63
2023/04/17 01:34:42;;;;;;;;;;;;;;;;;;5051338;28;20011;-63
2023/04/17 01:37:07;;;;;;;;;;;;;;;;;;5050083;28;19920;-63
2023/04/17 01:39:33;;;;;;;;;;;;;;;;;;5043570;28;19928;-63
2023/04/17 01:41:59;;;;;;;;;;;;;;;;;;5035238;28;19920;-63
2023/04/17 01:44:25;;;;;;;;;;;;;;;;;;5054187;28;20015;-62
2023/04/17 01:46:51;;;;;;;;;;;;;;;;;;5044010;28;20338;-63
2023/04/17 01:49:17;;;;;;;;;;;;;;;;;;5054540;28;19928;-63
2023/04/17 01:51:43;;;;;;;;;;;;;;;;;;5036393;28;19955;-63
2023/04/17 01:54:09;;;;;;;;;;;;;;;;;;5045576;28;19921;-63
2023/04/17 01:56:35;;;;;;;;;;;;;;;;;;5046357;28;19925;-63
2023/04/17 01:59:01;;;;;;;;;;;;;;;;;;5037138;28;20290;-62
2023/04/17 02:01:27;;;;;;;;;;;;;;;;;;5050174;28;19921;-62
2023/04/17 02:03:52;;;;;;;;;;;;;;;;;;5052829;28;20022;-62
2023/04/17 02:06:18;;;;;;;;;;;;;;;;;;5056026;28;20382;-62
2023/04/17 02:08:44;;;;;;;;;;;;;;;;;;5054594;28;19972;-63
2023/04/17 02:11:12;;;;;;;;;;;;;;;;;;5055042;28;19974;-63
2023/04/17 02:13:38;;;;;;;;;;;;;;;;;;5047687;28;19928;-63
2023/04/17 02:16:04;;;;;;;;;;;;;;;;;;5052118;28;19920;-62
2023/04/17 02:18:30;;;;;;;;;;;;;;;;;;5052708;28;20626;-63
2023/04/17 02:20:56;;;;;;;;;;;;;;;;;;5037964;28;19988;-63
2023/04/17 02:23:21;;;;;;;;;;;;;;;;;;5028581;28;19920;-63
2023/04/17 02:25:47;;;;;;;;;;;;;;;;;;5033572;28;19944;-63
2023/04/17 02:28:13;;;;;;;;;;;;;;;;;;5035268;28;19921;-63
2023/04/17 02:30:39;;;;;;;;;;;;;;;;;;5046679;28;19925;-63
2023/04/17 02:33:06;;;;;;;;;;;;;;;;;;5045817;28;20294;-62
2023/04/17 02:35:31;;;;;;;;;;;;;;;;;;5052933;28;19927;-62
2023/04/17 02:37:57;;;;;;;;;;;;;;;;;;5036782;28;19921;-63
2023/04/17 02:40:23;;;;;;;;;;;;;;;;;;5046685;28;19960;-63
2023/04/17 02:42:49;;;;;;;;;;;;;;;;;;5039348;28;20016;-63
2023/04/17 02:45:15;;;;;;;;;;;;;;;;;;5043203;28;20016;-62
2023/04/17 02:47:41;;;;;;;;;;;;;;;;;;5021407;28;19925;-63
2023/04/17 02:50:07;;;;;;;;;;;;;;;;;;5052929;28;19976;-62
2023/04/17 02:52:33;;;;;;;;;;;;;;;;;;5029994;28;20455;-62
2023/04/17 02:54:59;;;;;;;;;;;;;;;;;;5039774;28;19925;-62
2023/04/17 02:57:25;;;;;;;;;;;;;;;;;;5025635;28;20314;-63
2023/04/17 02:59:51;;;;;;;;;;;;;;;;;;5036558;28;19920;-62
2023/04/17 03:02:20;;;;;;;;;;;;;;;;;;5033363;28;19920;-62
2023/04/17 03:04:47;;;;;;;;;;;;;;;;;;5034763;28;19922;-62
2023/04/17 03:07:16;;;;;;;;;;;;;;;;;;5035536;28;20004;-63
2023/04/17 03:09:44;;;;;;;;;;;;;;;;;;5033759;28;19935;-62
2023/04/17 03:12:10;;;;;;;;;;;;;;;;;;5032985;28;19921;-62
2023/04/17 03:14:36;;;;;;;;;;;;;;;;;;5043138;28;20072;-62
2023/04/17 03:17:02;;;;;;;;;;;;;;;;;;5036902;28;19964;-62
2023/04/17 03:19:28;;;;;;;;;;;;;;;;;;5013855;28;19925;-63
2023/04/17 03:21:54;;;;;;;;;;;;;;;;;;5027252;28;19925;-63
2023/04/17 03:24:19;;;;;;;;;;;;;;;;;;5029984;28;19925;-63
2023/04/17 03:26:45;;;;;;;;;;;;;;;;;;5029080;28;19952;-63
2023/04/17 03:29:11;;;;;;;;;;;;;;;;;;5026097;28;19926;-63
2023/04/17 03:31:37;;;;;;;;;;;;;;;;;;5032316;28;19956;-63
2023/04/17 03:34:03;;;;;;;;;;;;;;;;;;5031950;28;19967;-63
2023/04/17 03:36:29;;;;;;;;;;;;;;;;;;5024201;28;20498;-63
2023/04/17 03:38:56;;;;;;;;;;;;;;;;;;5032279;28;19973;-63
2023/04/17 03:41:22;;;;;;;;;;;;;;;;;;5015839;28;20366;-63
2023/04/17 03:43:48;;;;;;;;;;;;;;;;;;5034637;28;19921;-63
2023/04/17 03:46:14;;;;;;;;;;;;;;;;;;5031768;28;19995;-63
2023/04/17 03:48:40;;;;;;;;;;;;;;;;;;5030829;28;20290;-63
2023/04/17 03:51:06;;;;;;;;;;;;;;;;;;5014611;28;19921;-63
2023/04/17 03:53:32;;;;;;;;;;;;;;;;;;5030912;28;20240;-63
2023/04/17 03:55:58;;;;;;;;;;;;;;;;;;5032534;28;19928;-63
2023/04/17 03:58:24;;;;;;;;;;;;;;;;;;5027530;28;19925;-62
2023/04/17 04:00:54;;;;;;;;;;;;;;;;;;5031534;28;19921;-63
2023/04/17 04:03:20;;;;;;;;;;;;;;;;;;5032844;28;19967;-62
2023/04/17 04:05:46;;;;;;;;;;;;;;;;;;5023471;28;19929;-63
2023/04/17 04:08:12;;;;;;;;;;;;;;;;;;5025440;28;19928;-62
2023/04/17 04:10:37;;;;;;;;;;;;;;;;;;5032155;28;19921;-62
2023/04/17 04:13:03;;;;;;;;;;;;;;;;;;5033544;28;19921;-63
2023/04/17 04:15:29;;;;;;;;;;;;;;;;;;5033337;28;19925;-63
2023/04/17 04:17:55;;;;;;;;;;;;;;;;;;5031600;28;19925;-63
2023/04/17 04:20:21;;;;;;;;;;;;;;;;;;5047429;28;20386;-62
2023/04/17 04:22:47;;;;;;;;;;;;;;;;;;5053028;28;19931;-62
2023/04/17 04:25:14;;;;;;;;;;;;;;;;;;5053747;28;19970;-63
2023/04/17 04:27:44;;;;;;;;;;;;;;;;;;5048155;28;19920;-62
2023/04/17 04:30:10;;;;;;;;;;;;;;;;;;5043120;28;20016;-62
2023/04/17 04:32:36;;;;;;;;;;;;;;;;;;5051195;28;19925;-62
2023/04/17 04:35:02;;;;;;;;;;;;;;;;;;5053288;28;20034;-62
2023/04/17 04:37:31;;;;;;;;;;;;;;;;;;5053177;28;19925;-62
2023/04/17 04:40:08;;;;;;;;;;;;;;;;;;5035201;28;20013;-62
2023/04/17 04:42:34;;;;;;;;;;;;;;;;;;5048677;28;19921;-62
2023/04/17 04:45:00;;;;;;;;;;;;;;;;;;5053267;28;20302;-63
2023/04/17 04:47:26;;;;;;;;;;;;;;;;;;5049306;28;19925;-63
2023/04/17 04:49:52;;;;;;;;;;;;;;;;;;5032645;28;19936;-63
2023/04/17 04:52:18;;;;;;;;;;;;;;;;;;5023872;28;20539;-63
2023/04/17 04:54:44;;;;;;;;;;;;;;;;;;5034745;28;20008;-63
2023/04/17 04:57:09;;;;;;;;;;;;;;;;;;5052478;28;20337;-62
2023/04/17 04:59:35;;;;;;;;;;;;;;;;;;5061964;28;19928;-62
2023/04/17 05:02:01;;;;;;;;;;;;;;;;;;5052945;28;20351;-63
2023/04/17 05:04:27;;;;;;;;;;;;;;;;;;5052816;28;20073;-62
2023/04/17 05:06:53;;;;;;;;;;;;;;;;;;5048254;28;19999;-62
2023/04/17 05:09:19;;;;;;;;;;;;;;;;;;5048338;28;19935;-63
2023/04/17 05:11:45;;;;;;;;;;;;;;;;;;5050129;28;19925;-63
2023/04/17 05:14:11;;;;;;;;;;;;;;;;;;5042994;28;19927;-63
2023/04/17 05:16:37;;;;;;;;;;;;;;;;;;5051255;28;19924;-63
2023/04/17 05:19:03;;;;;;;;;;;;;;;;;;5052144;28;19932;-63
2023/04/17 05:21:30;;;;;;;;;;;;;;;;;;5043477;28;20011;-62
2023/04/17 05:23:56;;;;;;;;;;;;;;;;;;5052271;28;20370;-63
2023/04/17 05:26:21;;;;;;;;;;;;;;;;;;5052580;28;20008;-63
2023/04/17 05:28:47;;;;;;;;;;;;;;;;;;5052503;28;19955;-62
2023/04/17 05:31:13;;;;;;;;;;;;;;;;;;5051641;28;19960;-62
2023/04/17 05:33:39;;;;;;;;;;;;;;;;;;5034483;28;19931;-62
2023/04/17 05:36:05;;;;;;;;;;;;;;;;;;5051174;28;19979;-63
2023/04/17 05:38:31;;;;;;;;;;;;;;;;;;5052573;28;19921;-63
2023/04/17 05:40:57;;;;;;;;;;;;;;;;;;5052451;28;19920;-63
2023/04/17 05:43:23;;;;;;;;;;;;;;;;;;5032295;28;20022;-63
2023/04/17 05:45:49;;;;;;;;;;;;;;;;;;5049542;28;19979;-63
2023/04/17 05:48:15;;;;;;;;;;;;;;;;;;5026459;28;19921;-63
2023/04/17 05:50:41;;;;;;;;;;;;;;;;;;5051166;28;19921;-62
2023/04/17 05:53:07;;;;;;;;;;;;;;;;;;5055143;28;19927;-62
2023/04/17 05:55:33;;;;;;;;;;;;;;;;;;5072305;28;19924;-63
2023/04/17 05:57:59;;;;;;;;;;;;;;;;;;5072252;28;19928;-63
2023/04/17 06:00:25;;;;;;;;;;;;;;;;;;5055579;28;19921;-62
2023/04/17 06:02:51;;;;;;;;;;;;;;;;;;5050239;28;20366;-62
2023/04/17 06:05:16;;;;;;;;;;;;;;;;;;5051750;28;19921;-63
2023/04/17 06:07:42;;;;;;;;;;;;;;;;;;5051785;28;19927;-62
2023/04/17 06:10:09;;;;;;;;;;;;;;;;;;5050483;28;19979;-62
2023/04/17 06:12:35;;;;;;;;;;;;;;;;;;5049862;28;19925;-62
2023/04/17 06:15:01;;;;;;;;;;;;;;;;;;5051386;28;19928;-62
2023/04/17 06:17:27;;;;;;;;;;;;;;;;;;5051662;28;20377;-62
2023/04/17 06:19:52;;;;;;;;;;;;;;;;;;5040548;28;19932;-62
2023/04/17 06:22:18;;;;;;;;;;;;;;;;;;5022249;28;20016;-63
2023/04/17 06:24:44;;;;;;;;;;;;;;;;;;5031811;28;19975;-62
2023/04/17 06:27:10;;;;;;;;;;;;;;;;;;5032043;28;20681;-62
2023/04/17 06:29:36;;;;;;;;;;;;;;;;;;5032900;28;19929;-62
2023/04/17 06:32:02;;;;;;;;;;;;;;;;;;5036581;28;20383;-62
2023/04/17 06:34:28;;;;;;;;;;;;;;;;;;5033412;28;19921;-62
2023/04/17 06:36:54;;;;;;;;;;;;;;;;;;5035553;28;20374;-63
2023/04/17 06:39:21;;;;;;;;;;;;;;;;;;5034707;28;19947;-63
2023/04/17 06:41:49;;;;;;;;;;;;;;;;;;5022573;28;19921;-62
2023/04/17 06:44:15;;;;;;;;;;;;;;;;;;5029362;28;19928;-62
2023/04/17 06:46:41;;;;;;;;;;;;;;;;;;5022517;28;20035;-62
2023/04/17 06:49:06;;;;;;;;;;;;;;;;;;5035245;28;20028;-63
2023/04/17 06:51:32;;;;;;;;;;;;;;;;;;4995844;28;19951;-63
2023/04/17 06:53:58;;;;;;;;;;;;;;;;;;5034146;28;20248;-63
2023/04/17 06:56:24;;;;;;;;;;;;;;;;;;5034139;28;19929;-63
2023/04/17 06:58:50;;;;;;;;;;;;;;;;;;5033614;28;20420;-63
2023/04/17 07:01:16;;;;;;;;;;;;;;;;;;5031547;28;20302;-63
2023/04/17 07:03:42;;;;;;;;;;;;;;;;;;5021206;28;19921;-63
2023/04/17 07:06:08;;;;;;;;;;;;;;;;;;5026651;28;19927;-62
2023/04/17 07:08:34;;;;;;;;;;;;;;;;;;5032809;28;20016;-63
2023/04/17 07:11:00;;;;;;;;;;;;;;;;;;5034380;28;19921;-63
2023/04/17 07:13:30;;;;;;;;;;;;;;;;;;5030616;28;19921;-63
2023/04/17 07:15:56;;;;;;;;;;;;;;;;;;5023995;28;20374;-64
2023/04/17 07:18:22;;;;;;;;;;;;;;;;;;5034380;28;20409;-63
2023/04/17 07:20:48;;;;;;;;;;;;;;;;;;5037579;28;19925;-64
2023/04/17 07:23:14;;;;;;;;;;;;;;;;;;5033782;28;19932;-63
2023/04/17 07:25:40;;;;;;;;;;;;;;;;;;5038875;28;20263;-63
2023/04/17 07:28:06;;;;;;;;;;;;;;;;;;5045838;28;19925;-64
2023/04/17 07:30:32;;;;;;;;;;;;;;;;;;5034176;28;19936;-62
2023/04/17 07:32:57;;;;;;;;;;;;;;;;;;5032503;28;19925;-63
2023/04/17 07:35:23;;;;;;;;;;;;;;;;;;5042898;28;20246;-63
2023/04/17 07:37:49;;;;;;;;;;;;;;;;;;5045658;28;19921;-63
2023/04/17 07:40:15;;;;;;;;;;;;;;;;;;5034085;28;20027;-63
2023/04/17 07:42:41;;;;;;;;;;;;;;;;;;5027742;28;20386;-63
2023/04/17 07:45:07;;;;;;;;;;;;;;;;;;5032715;28;20010;-63
2023/04/17 07:47:33;;;;;;;;;;;;;;;;;;5034150;28;19921;-63
2023/04/17 07:49:59;;;;;;;;;;;;;;;;;;5029534;28;20468;-63
2023/04/17 07:52:25;;;;;;;;;;;;;;;;;;5014637;28;19926;-63
2023/04/17 07:54:51;;;;;;;;;;;;;;;;;;5028285;28;19925;-64
2023/04/17 07:57:17;;;;;;;;;;;;;;;;;;5033090;28;19921;-63
2023/04/17 07:59:42;;;;;;;;;;;;;;;;;;5034352;28;19928;-63
2023/04/17 08:02:08;;;;;;;;;;;;;;;;;;5036629;28;19920;-63
2023/04/17 08:04:34;;;;;;;;;;;;;;;;;;5052328;28;20019;-63
2023/04/17 08:07:00;;;;;;;;;;;;;;;;;;5027062;28;20318;-63
2023/04/17 08:09:26;;;;;;;;;;;;;;;;;;5015922;28;19979;-63
2023/04/17 08:11:52;;;;;;;;;;;;;;;;;;5034376;28;20070;-63
2023/04/17 08:14:19;;;;;;;;;;;;;;;;;;5033656;28;19963;-63
2023/04/17 08:16:46;;;;;;;;;;;;;;;;;;5032518;28;20358;-63
2023/04/17 08:19:11;;;;;;;;;;;;;;;;;;5038020;28;20054;-63
2023/04/17 08:21:37;;;;;;;;;;;;;;;;;;5047914;28;20011;-63
2023/04/17 08:24:03;;;;;;;;;;;;;;;;;;5040861;28;19975;-63
2023/04/17 08:26:29;;;;;;;;;;;;;;;;;;5036692;28;19936;-63
2023/04/17 08:29:00;;;;;;;;;;;;;;;;;;5051937;28;19925;-63
2023/04/17 08:31:26;;;;;;;;;;;;;;;;;;5025791;28;20015;-63
2023/04/17 08:33:52;;;;;;;;;;;;;;;;;;5037351;28;20419;-62
2023/04/17 08:36:18;;;;;;;;;;;;;;;;;;5007678;28;19976;-63
2023/04/17 08:38:46;;;;;;;;;;;;;;;;;;5030400;28;19921;-62
2023/04/17 08:41:12;;;;;;;;;;;;;;;;;;5033623;28;20072;-62
2023/04/17 08:43:38;;;;;;;;;;;;;;;;;;5005818;28;20003;-62
2023/04/17 08:46:04;;;;;;;;;;;;;;;;;;5021228;28;19921;-62
2023/04/17 08:48:30;;;;;;;;;;;;;;;;;;5032424;28;20362;-62
2023/04/17 08:50:56;;;;;;;;;;;;;;;;;;5015440;28;20036;-63
2023/04/17 08:53:22;;;;;;;;;;;;;;;;;;5037446;28;20090;-62
2023/04/17 08:55:48;;;;;;;;;;;;;;;;;;5033700;28;19920;-63
2023/04/17 08:58:14;;;;;;;;;;;;;;;;;;5036514;28;19928;-62
2023/04/17 09:00:40;;;;;;;;;;;;;;;;;;5011260;28;19921;-62
2023/04/17 09:03:12;;;;;;;;;;;;;;;;;;5036824;28;19940;-62
2023/04/17 09:05:38;;;;;;;;;;;;;;;;;;5021781;28;19922;-62
2023/04/17 09:08:04;;;;;;;;;;;;;;;;;;5037551;28;19975;-62
2023/04/17 09:10:31;;;;;;;;;;;;;;;;;;5043119;28;19925;-62
2023/04/17 09:12:57;;;;;;;;;;;;;;;;;;5014110;28;20444;-63
2023/04/17 09:15:23;;;;;;;;;;;;;;;;;;5032110;28;19921;-63
2023/04/17 09:17:49;;;;;;;;;;;;;;;;;;5038194;28;19921;-63
2023/04/17 09:20:16;;;;;;;;;;;;;;;;;;5047033;28;20345;-63
2023/04/17 09:22:42;;;;;;;;;;;;;;;;;;5041626;28;20385;-63
2023/04/17 09:25:08;;;;;;;;;;;;;;;;;;5036085;28;19922;-63
2023/04/17 09:27:33;;;;;;;;;;;;;;;;;;5033021;28;19974;-63
2023/04/17 09:30:00;;;;;;;;;;;;;;;;;;5037215;28;19982;-66
2023/04/17 09:32:26;;;;;;;;;;;;;;;;;;5028219;28;19925;-66
2023/04/17 09:34:52;;;;;;;;;;;;;;;;;;5048456;28;19921;-66
2023/04/17 09:37:17;;;;;;;;;;;;;;;;;;5045599;28;20570;-67
2023/04/17 09:39:44;;;;;;;;;;;;;;;;;;5036863;28;19921;-66
2023/04/17 09:42:10;;;;;;;;;;;;;;;;;;5044997;28;20281;-65
2023/04/17 09:44:36;;;;;;;;;;;;;;;;;;5042693;28;19929;-66
2023/04/17 09:47:02;;;;;;;;;;;;;;;;;;5029986;28;19921;-66
2023/04/17 09:49:28;;;;;;;;;;;;;;;;;;5030880;28;19936;-66
2023/04/17 09:51:55;;;;;;;;;;;;;;;;;;5030472;28;19921;-65
2023/04/17 09:54:21;;;;;;;;;;;;;;;;;;5017652;28;19925;-66
2023/04/17 09:56:48;;;;;;;;;;;;;;;;;;5031369;28;19925;-65
2023/04/17 09:59:14;;;;;;;;;;;;;;;;;;5030178;28;19947;-66
2023/04/17 10:01:41;;;;;;;;;;;;;;;;;;5035422;28;19927;-65
2023/04/17 10:04:07;;;;;;;;;;;;;;;;;;5027112;28;19925;-66
2023/04/17 10:06:32;;;;;;;;;;;;;;;;;;5029152;28;19928;-65
2023/04/17 10:08:58;;;;;;;;;;;;;;;;;;5037681;28;19931;-65
2023/04/17 10:11:24;;;;;;;;;;;;;;;;;;5042228;28;19929;-65
2023/04/17 10:13:50;;;;;;;;;;;;;;;;;;5034303;28;19928;-66
2023/04/17 10:16:16;;;;;;;;;;;;;;;;;;5034868;28;19971;-65
2023/04/17 10:18:42;;;;;;;;;;;;;;;;;;5050910;28;20900;-65
2023/04/17 10:21:10;;;;;;;;;;;;;;;;;;5038855;28;19925;-67
2023/04/17 10:23:37;;;;;;;;;;;;;;;;;;5018297;28;19925;-66
2023/04/17 10:26:02;;;;;;;;;;;;;;;;;;5034104;28;19921;-66
2023/04/17 10:28:29;;;;;;;;;;;;;;;;;;5037586;28;19927;-66
2023/04/17 10:30:56;;;;;;;;;;;;;;;;;;5036078;28;20204;-65
2023/04/17 10:33:23;;;;;;;;;;;;;;;;;;5034752;28;19928;-69
2023/04/17 10:35:49;;;;;;;;;;;;;;;;;;5035037;28;19929;-65
2023/04/17 10:38:16;;;;;;;;;;;;;;;;;;5038690;28;19921;-65
2023/04/17 10:40:42;;;;;;;;;;;;;;;;;;5045053;28;19924;-66
2023/04/17 10:43:08;;;;;;;;;;;;;;;;;;5030567;28;19972;-65
2023/04/17 10:45:34;;;;;;;;;;;;;;;;;;5020174;28;19921;-65
2023/04/17 10:48:00;;;;;;;;;;;;;;;;;;5048945;28;20332;-65
2023/04/17 10:50:26;;;;;;;;;;;;;;;;;;5038451;28;19933;-65
2023/04/17 10:52:52;;;;;;;;;;;;;;;;;;5034162;28;19921;-65
2023/04/17 10:55:19;;;;;;;;;;;;;;;;;;5033885;28;19928;-66
2023/04/17 10:57:45;;;;;;;;;;;;;;;;;;5039234;28;19928;-66
2023/04/17 11:00:11;;;;;;;;;;;;;;;;;;5032042;28;19944;-65
2023/04/17 11:02:37;;;;;;;;;;;;;;;;;;5039282;28;19928;-66
2023/04/17 11:05:03;;;;;;;;;;;;;;;;;;5034773;28;20041;-66
2023/04/17 11:07:31;;;;;;;;;;;;;;;;;;5029876;28;20243;-66
2023/04/17 11:09:57;;;;;;;;;;;;;;;;;;5017898;28;19931;-65
2023/04/17 11:12:23;;;;;;;;;;;;;;;;;;5015980;28;19925;-66
2023/04/17 11:14:49;;;;;;;;;;;;;;;;;;5045151;28;19925;-66
2023/04/17 11:17:15;;;;;;;;;;;;;;;;;;5037461;28;20294;-66
2023/04/17 11:19:41;;;;;;;;;;;;;;;;;;5041300;28;20008;-66
2023/04/17 11:22:08;;;;;;;;;;;;;;;;;;5052405;28;20038;-66
2023/04/17 11:24:34;;;;;;;;;;;;;;;;;;5053933;28;19921;-66
2023/04/17 11:27:02;;;;;;;;;;;;;;;;;;5053512;28;20285;-67
2023/04/17 11:29:28;;;;;;;;;;;;;;;;;;5033656;28;19940;-67
2023/04/17 11:31:54;;;;;;;;;;;;;;;;;;5033692;28;19921;-67
2023/04/17 11:34:20;;;;;;;;;;;;;;;;;;5047470;28;19936;-67
2023/04/17 11:36:45;;;;;;;;;;;;;;;;;;5025438;28;19925;-66
2023/04/17 11:39:13;;;;;;;;;;;;;;;;;;5017737;28;19921;-67
2023/04/17 11:41:39;;;;;;;;;;;;;;;;;;5053407;28;19920;-66
2023/04/17 11:44:06;;;;;;;;;;;;;;;;;;5050780;28;22404;-67
2023/04/17 11:46:33;;;;;;;;;;;;;;;;;;5050564;28;19928;-66
2023/04/17 11:48:59;;;;;;;;;;;;;;;;;;5055054;28;20382;-67
2023/04/17 11:51:25;;;;;;;;;;;;;;;;;;5051153;28;19924;-66
2023/04/17 11:53:51;;;;;;;;;;;;;;;;;;5052250;28;20337;-66
2023/04/17 11:56:17;;;;;;;;;;;;;;;;;;5050103;28;20015;-67
2023/04/17 11:58:43;;;;;;;;;;;;;;;;;;5052276;28;19951;-67
2023/04/17 12:01:09;;;;;;;;;;;;;;;;;;5035263;28;19929;-67
2023/04/17 12:03:35;;;;;;;;;;;;;;;;;;5034634;28;20370;-67
2023/04/17 12:06:00;;;;;;;;;;;;;;;;;;5038928;28;20012;-67
2023/04/17 12:08:26;;;;;;;;;;;;;;;;;;5045815;28;20321;-69
2023/04/17 12:10:52;;;;;;;;;;;;;;;;;;5031421;28;20007;-68
2023/04/17 12:13:18;;;;;;;;;;;;;;;;;;5032077;28;19930;-69
2023/04/17 12:15:44;;;;;;;;;;;;;;;;;;5030288;28;19956;-68
2023/04/17 12:18:10;;;;;;;;;;;;;;;;;;5051598;28;19994;-68
2023/04/17 12:20:36;;;;;;;;;;;;;;;;;;5013744;28;20366;-67
2023/04/17 12:23:02;;;;;;;;;;;;;;;;;;5007996;28;19928;-68
2023/04/17 12:25:28;;;;;;;;;;;;;;;;;;5012666;28;19965;-65
2023/04/17 12:27:55;;;;;;;;;;;;;;;;;;5032477;28;19963;-65
2023/04/17 12:30:21;;;;;;;;;;;;;;;;;;5040400;28;20405;-65
2023/04/17 12:32:48;;;;;;;;;;;;;;;;;;5047772;28;19961;-65
2023/04/17 12:35:14;;;;;;;;;;;;;;;;;;5046784;28;19943;-65
2023/04/17 12:37:40;;;;;;;;;;;;;;;;;;5035403;28;20573;-65
2023/04/17 12:40:06;;;;;;;;;;;;;;;;;;5032180;28;19928;-65
2023/04/17 12:42:32;;;;;;;;;;;;;;;;;;5032668;28;19921;-63
2023/04/17 12:44:58;;;;;;;;;;;;;;;;;;5030897;28;19928;-64
2023/04/17 12:47:24;;;;;;;;;;;;;;;;;;5016545;28;20429;-64
2023/04/17 12:49:50;;;;;;;;;;;;;;;;;;5037227;28;19929;-65
2023/04/17 12:52:16;;;;;;;;;;;;;;;;;;5050918;28;19932;-64
2023/04/17 12:54:42;;;;;;;;;;;;;;;;;;5003124;28;19928;-64
2023/04/17 12:57:08;;;;;;;;;;;;;;;;;;5032018;28;19929;-64
2023/04/17 12:59:34;;;;;;;;;;;;;;;;;;5042923;28;19956;-64
2023/04/17 13:02:00;;;;;;;;;;;;;;;;;;5012725;28;19976;-64
2023/04/17 13:04:26;;;;;;;;;;;;;;;;;;5031737;28;19929;-64
2023/04/17 13:06:52;;;;;;;;;;;;;;;;;;5032874;28;19928;-64
2023/04/17 13:09:18;;;;;;;;;;;;;;;;;;5036480;28;19929;-65
2023/04/17 13:11:44;;;;;;;;;;;;;;;;;;5046182;28;19925;-64
2023/04/17 13:14:10;;;;;;;;;;;;;;;;;;5002669;28;19925;-64
2023/04/17 13:16:36;;;;;;;;;;;;;;;;;;5033351;28;19932;-65
2023/04/17 13:19:02;;;;;;;;;;;;;;;;;;5028227;28;20047;-65
2023/04/17 13:21:28;;;;;;;;;;;;;;;;;;5010768;28;19921;-64
2023/04/17 13:23:54;;;;;;;;;;;;;;;;;;5021601;28;19964;-65
2023/04/17 13:26:20;;;;;;;;;;;;;;;;;;5009023;28;20012;-65
2023/04/17 13:28:46;;;;;;;;;;;;;;;;;;5007433;28;19975;-64
2023/04/17 13:31:12;;;;;;;;;;;;;;;;;;5027165;28;19932;-64
2023/04/17 13:33:39;;;;;;;;;;;;;;;;;;5066367;22;19921;-63
2023/04/17 13:36:05;;;;;;;;;;;;;;;;;;5027196;28;20250;-64
2023/04/17 13:38:30;;;;;;;;;;;;;;;;;;5025040;28;21874;-63
2023/04/17 13:40:56;;;;;;;;;;;;;;;;;;5019055;28;19921;-64
2023/04/17 13:43:23;;;;;;;;;;;;;;;;;;5010891;28;20326;-65
2023/04/17 13:45:50;;;;;;;;;;;;;;;;;;5038902;28;19967;-64
2023/04/17 13:48:15;;;;;;;;;;;;;;;;;;5032158;28;19925;-64
2023/04/17 13:50:41;;;;;;;;;;;;;;;;;;5040249;28;19921;-63
2023/04/17 13:53:07;;;;;;;;;;;;;;;;;;5043664;28;19929;-64
2023/04/17 13:55:33;;;;;;;;;;;;;;;;;;5041534;28;19924;-64
2023/04/17 13:57:59;;;;;;;;;;;;;;;;;;5022102;28;19967;-64
2023/04/17 14:00:25;;;;;;;;;;;;;;;;;;5037999;28;19979;-63
2023/04/17 14:02:51;;;;;;;;;;;;;;;;;;5003066;28;19988;-64
2023/04/17 14:05:17;;;;;;;;;;;;;;;;;;5005369;28;20414;-64
2023/04/17 14:07:43;;;;;;;;;;;;;;;;;;5030257;28;19929;-64
2023/04/17 14:10:09;;;;;;;;;;;;;;;;;;5017439;28;20267;-63
2023/04/17 14:12:35;;;;;;;;;;;;;;;;;;5015029;28;19933;-63
2023/04/17 14:15:01;;;;;;;;;;;;;;;;;;5026308;28;19921;-63
2023/04/17 14:17:27;;;;;;;;;;;;;;;;;;5027537;28;19929;-63
2023/04/17 14:19:53;;;;;;;;;;;;;;;;;;5009874;28;19935;-62
2023/04/17 14:22:19;;;;;;;;;;;;;;;;;;5021357;28;20015;-62
2023/04/17 14:24:44;;;;;;;;;;;;;;;;;;5032059;28;19921;-63
2023/04/17 14:27:10;;;;;;;;;;;;;;;;;;5035065;28;20008;-63
2023/04/17 14:29:36;;;;;;;;;;;;;;;;;;5000954;28;19921;-63
2023/04/17 14:32:02;;;;;;;;;;;;;;;;;;5009239;28;20306;-63
2023/04/17 14:34:28;;;;;;;;;;;;;;;;;;5017514;28;19921;-63
2023/04/17 14:36:54;;;;;;;;;;;;;;;;;;5031064;28;19925;-63
2023/04/17 14:39:20;;;;;;;;;;;;;;;;;;5015166;28;19925;-63
2023/04/17 14:41:46;;;;;;;;;;;;;;;;;;5036941;28;20021;-63
2023/04/17 14:44:12;;;;;;;;;;;;;;;;;;5042445;28;20059;-63
2023/04/17 14:46:38;;;;;;;;;;;;;;;;;;5029208;28;19921;-63
2023/04/17 14:49:03;;;;;;;;;;;;;;;;;;5025885;28;19920;-63
2023/04/17 14:51:30;;;;;;;;;;;;;;;;;;5026516;28;20375;-63
2023/04/17 14:53:56;;;;;;;;;;;;;;;;;;5046538;28;19925;-63
2023/04/17 14:56:22;;;;;;;;;;;;;;;;;;5013716;28;19929;-62
2023/04/17 14:58:48;;;;;;;;;;;;;;;;;;5030122;28;19948;-65
2023/04/17 15:01:14;;;;;;;;;;;;;;;;;;5040734;28;20000;-64
2023/04/17 15:03:40;;;;;;;;;;;;;;;;;;5045323;28;20000;-64
2023/04/17 15:06:05;;;;;;;;;;;;;;;;;;5020047;28;19972;-64
2023/04/17 15:08:31;;;;;;;;;;;;;;;;;;5022124;28;19925;-64
2023/04/17 15:10:57;;;;;;;;;;;;;;;;;;5034787;28;19952;-63
2023/04/17 15:13:23;;;;;;;;;;;;;;;;;;5028550;28;19925;-63
2023/04/17 15:15:49;;;;;;;;;;;;;;;;;;5011343;28;19929;-63
2023/04/17 15:18:15;;;;;;;;;;;;;;;;;;5030662;28;20353;-63
2023/04/17 15:20:41;;;;;;;;;;;;;;;;;;5028138;28;20252;-63
2023/04/17 15:23:07;;;;;;;;;;;;;;;;;;5032244;28;20859;-63
2023/04/17 15:25:33;;;;;;;;;;;;;;;;;;5039170;28;19925;-63
2023/04/17 15:27:59;;;;;;;;;;;;;;;;;;5036407;28;19949;-63
2023/04/17 15:30:25;;;;;;;;;;;;;;;;;;5043407;28;19964;-63
2023/04/17 15:32:51;;;;;;;;;;;;;;;;;;5052132;28;20006;-64
2023/04/17 15:35:17;;;;;;;;;;;;;;;;;;5064993;28;20023;-62
2023/04/17 15:37:43;;;;;;;;;;;;;;;;;;5054819;28;20370;-62
2023/04/17 15:40:10;;;;;;;;;;;;;;;;;;5010909;28;19920;-63
2023/04/17 15:42:36;;;;;;;;;;;;;;;;;;5065991;28;19940;-63
2023/04/17 15:45:01;;;;;;;;;;;;;;;;;;5055622;28;19930;-63
2023/04/17 15:47:27;;;;;;;;;;;;;;;;;;5054986;28;19928;-63
2023/04/17 15:49:53;;;;;;;;;;;;;;;;;;5059523;28;19931;-63
2023/04/17 15:52:19;;;;;;;;;;;;;;;;;;5062314;28;19956;-63
2023/04/17 15:54:45;;;;;;;;;;;;;;;;;;5061020;28;19929;-63
2023/04/17 15:57:11;;;;;;;;;;;;;;;;;;5039302;28;19921;-63
2023/04/17 15:59:37;;;;;;;;;;;;;;;;;;5051902;28;19925;-63
2023/04/17 16:02:06;;;;;;;;;;;;;;;;;;5063222;28;19920;-63
2023/04/17 16:04:32;;;;;;;;;;;;;;;;;;5061801;28;20386;-63
2023/04/17 16:06:57;;;;;;;;;;;;;;;;;;5064387;28;19947;-62
2023/04/17 16:09:23;;;;;;;;;;;;;;;;;;5053194;28;19940;-62
2023/04/17 16:11:49;;;;;;;;;;;;;;;;;;5051025;28;20624;-63
2023/04/17 16:14:15;;;;;;;;;;;;;;;;;;5070455;28;19989;-63
2023/04/17 16:16:41;;;;;;;;;;;;;;;;;;5055955;28;19920;-63
2023/04/17 16:19:07;;;;;;;;;;;;;;;;;;5035625;28;19921;-63
2023/04/17 16:21:33;;;;;;;;;;;;;;;;;;5035682;28;20054;-63
2023/04/17 16:23:59;;;;;;;;;;;;;;;;;;5065619;28;19939;-63
2023/04/17 16:26:25;;;;;;;;;;;;;;;;;;5048264;28;19925;-63
2023/04/17 16:28:51;;;;;;;;;;;;;;;;;;5047493;28;20282;-63
2023/04/17 16:31:17;;;;;;;;;;;;;;;;;;5047172;28;19979;-63
2023/04/17 16:33:42;;;;;;;;;;;;;;;;;;5055268;28;19928;-64
2023/04/17 16:36:08;;;;;;;;;;;;;;;;;;5052840;28;19931;-63
2023/04/17 16:38:34;;;;;;;;;;;;;;;;;;5049687;28;19926;-63